Gallatin, TN (37066)

6:51 AM CDT en Agosto 26, 2016 (GMT -0500)
Cottages of Last Plantation | | Change Station
Aviso en curso: Special Statement

Alt 499 ft 36.36 °N, 86.49 °W | Updated 9 minutes ago

Scattered Clouds
Nubes dispersas
72.9 ° F
Sensación térmica 72.9 ° F
N
0.0
Viento Variable Viento desde SSO

Hoy
Alta -- | Baja -- ° F
--% Posibilidad de precipitaciones
Ayer
Alta -- | Baja -- ° F
Precip. -- pul
Presión 30.13 pul
Visibilidad 4.0 Millas
Nubes Nubes dispersas 25000 ft
Punto de rocío 73 ° F
Humedad 99%
Precipitaciones 0.00 pul
Espesor de la nieve No disponible.
6:12 AM 7:21 PM
Creciente menguante, 35% visible
SPECI KBNA 261128Z 00000KT 4SM BR SCT250 23/23 A3013 RMK AO2 BCFG
Presión 30.13 pul
Visibilidad 4.0 Millas
Nubes Nubes dispersas 25000 ft
Punto de rocío 73 ° F
Humedad 99%
Precipitaciones 0.00 pul
Espesor de la nieve No disponible.
6:12 AM 7:21 PM
Creciente menguante, 35% visible
SPECI KBNA 261128Z 00000KT 4SM BR SCT250 23/23 A3013 RMK AO2 BCFG

10-Day Weather Forecast

Almanac

Astronomía

Aug. 26, 2016 Salida Puesta
Hora real
Crepúsculo civil
Crepúsculo náutico
Crepúsculo astronómico
Luna
Horas de luz
Horas de luz
Tomorrow will be .
, % of the Moon is Illuminated

Extremos de hoy

Máximos del estado Bajos del estado

Community

WunderPhotos

Upload Photos

1,935,071 ¡fotos cargadas!

WunderBlog® & News

Nearby

Calidad del aire

  Calidad del aire Índice AQ Contaminante
Not available.

Grosos de nieve

Estación Profundido Altura

Actividad de terremotos

Ciudad Distance Mag. Tiempo y dato
Magnitud mínima muestra es 2,5.

Temperaturas de aguas costeras

Lugar Temperatura

Stations

Estaciones meteorológicas cercanas

Ubicación de la estación Temp. Vientos helados Punto de rocío Humedad Viento Precip. Alt Actualizado Tipo
                   

Watches & Warnings

Special Statement
Issued: 5:12 AM CDT Aug. 26, 2016 – National Weather Service

... Patchy fog has developed in parts of middle Tennessee this
morning...

Patchy fog is reducing visibiliies down to one half mile in a few
locations around middle Tennessee. The patchy coverage of fog
means that the visibility may drop suddenly... especially around
lakes and streams... so motorists are urged to use caution and use
low beam headlights when passing through foggy areas. Conditions
will improve 8 am and 9 am.

Boyd